createdAt,value
2023-04-08T00:01:43.502Z,26.87
2023-04-08T00:04:14.515Z,27.00
2023-04-08T00:06:44.645Z,26.37
2023-04-08T00:09:14.694Z,26.62
2023-04-08T00:11:44.616Z,26.63
2023-04-08T00:14:14.645Z,26.63
2023-04-08T00:16:44.536Z,27.90
2023-04-08T00:19:14.141Z,27.65
2023-04-08T00:21:43.677Z,26.80
2023-04-08T00:24:13.312Z,28.00
2023-04-08T00:26:43.147Z,26.83
2023-04-08T00:29:12.959Z,27.27
2023-04-08T00:31:42.989Z,27.10
2023-04-08T00:34:12.840Z,27.62
2023-04-08T00:36:42.667Z,27.57
2023-04-08T00:39:12.867Z,26.42
2023-04-08T00:41:43.170Z,26.30
2023-04-08T00:44:13.108Z,27.03
2023-04-08T00:46:43.458Z,25.53
2023-04-08T00:49:13.377Z,25.50
2023-04-08T00:51:43.219Z,25.10
2023-04-08T00:54:13.185Z,26.62
2023-04-08T00:56:45.821Z,24.87
2023-04-08T00:59:16.546Z,25.93
2023-04-08T01:01:58.216Z,25.20
2023-04-08T01:04:47.072Z,26.77
2023-04-08T01:07:19.922Z,23.70
2023-04-08T01:09:52.476Z,25.15
2023-04-08T01:12:28.362Z,26.10
2023-04-08T01:15:04.214Z,27.40
2023-04-08T01:17:35.400Z,24.67
2023-04-08T01:20:08.246Z,24.47
2023-04-08T01:23:05.235Z,26.17
2023-04-08T01:25:37.206Z,24.93
2023-04-08T01:28:13.923Z,24.13
2023-04-08T01:30:46.120Z,24.80
2023-04-08T01:33:19.396Z,26.10
2023-04-08T01:35:49.876Z,25.13
2023-04-08T01:38:23.088Z,25.17
2023-04-08T01:40:55.801Z,25.72
2023-04-08T01:43:27.856Z,24.90
2023-04-08T01:45:58.630Z,25.77
2023-04-08T01:48:29.427Z,26.47
2023-04-08T01:51:00.982Z,24.83
2023-04-08T01:53:30.860Z,23.97
2023-04-08T01:56:05.360Z,22.45
2023-04-08T01:58:39.224Z,22.17
2023-04-08T02:01:12.483Z,20.80
2023-04-08T02:03:45.504Z,20.20
2023-04-08T02:06:16.003Z,20.07
2023-04-08T02:08:46.304Z,19.57
2023-04-08T02:11:16.386Z,20.67
2023-04-08T02:13:46.214Z,20.40
2023-04-08T02:16:19.194Z,20.70
2023-04-08T02:19:04.749Z,20.30
2023-04-08T02:21:38.412Z,21.53
2023-04-08T02:24:11.357Z,20.60
2023-04-08T02:26:43.048Z,21.77
2023-04-08T02:29:16.307Z,21.25
2023-04-08T02:31:47.408Z,21.42
2023-04-08T02:34:19.033Z,22.73
2023-04-08T02:36:51.093Z,21.87
2023-04-08T02:39:21.108Z,22.53
2023-04-08T02:41:51.298Z,22.10
2023-04-08T02:44:22.854Z,20.57
2023-04-08T02:49:56.987Z,21.43
2023-04-08T02:52:26.695Z,21.20
2023-04-08T02:54:56.802Z,19.77
2023-04-08T02:57:26.742Z,20.60
2023-04-08T02:59:57.069Z,19.37
2023-04-08T03:02:26.771Z,19.60
2023-04-08T03:04:56.684Z,20.13
2023-04-08T03:07:26.850Z,20.70
2023-04-08T03:09:56.628Z,21.00
2023-04-08T03:12:29.097Z,20.08
2023-04-08T03:14:59.036Z,18.60
2023-04-08T03:17:28.945Z,19.93
2023-04-08T03:19:58.905Z,18.13
2023-04-08T03:22:28.702Z,18.17
2023-04-08T03:24:58.529Z,18.47
2023-04-08T03:27:28.558Z,18.83
2023-04-08T03:29:58.091Z,18.05
2023-04-08T03:32:27.963Z,18.90
2023-04-08T03:34:58.247Z,18.55
2023-04-08T03:37:28.237Z,19.07
2023-04-08T03:39:58.378Z,17.30
2023-04-08T03:42:28.050Z,18.82
2023-04-08T03:44:58.500Z,16.65
2023-04-08T03:47:28.516Z,17.20
2023-04-08T03:49:58.310Z,17.33
2023-04-08T03:52:28.238Z,16.17
2023-04-08T03:54:58.133Z,17.57
2023-04-08T03:57:28.322Z,18.87
2023-04-08T03:59:58.138Z,17.00
2023-04-08T04:02:28.394Z,17.83
2023-04-08T04:04:58.384Z,16.87
2023-04-08T04:07:28.233Z,16.93
2023-04-08T04:09:58.117Z,16.20
2023-04-08T04:12:27.974Z,17.17
2023-04-08T04:14:58.156Z,17.57
2023-04-08T04:17:27.720Z,16.95
2023-04-08T04:19:57.617Z,17.93
2023-04-08T04:22:27.301Z,17.40
2023-04-08T04:24:57.142Z,17.23
2023-04-08T04:27:27.305Z,17.40
2023-04-08T04:29:57.160Z,16.10
2023-04-08T04:32:26.716Z,17.02
2023-04-08T04:34:56.585Z,17.00
2023-04-08T04:37:27.545Z,17.15
2023-04-08T04:39:57.335Z,17.37
2023-04-08T04:42:26.950Z,18.07
2023-04-08T04:44:56.853Z,16.73
2023-04-08T04:47:27.060Z,17.48
2023-04-08T04:49:57.146Z,18.00
2023-04-08T04:52:26.760Z,17.48
2023-04-08T04:54:57.923Z,19.05
2023-04-08T04:57:27.882Z,18.87
2023-04-08T04:59:57.700Z,18.83
2023-04-08T05:02:27.760Z,18.55
2023-04-08T05:04:57.688Z,18.40
2023-04-08T05:07:27.916Z,18.48
2023-04-08T05:09:58.036Z,18.67
2023-04-08T05:12:28.597Z,19.42
2023-04-08T05:15:00.042Z,18.50
2023-04-08T05:17:29.906Z,20.13
2023-04-08T05:19:59.855Z,20.30
2023-04-08T05:22:29.486Z,20.60
2023-04-08T05:24:59.342Z,20.50
2023-04-08T05:27:29.208Z,20.47
2023-04-08T05:29:58.994Z,19.10
2023-04-08T05:32:29.742Z,18.37
2023-04-08T05:34:59.568Z,18.97
2023-04-08T05:37:29.412Z,18.80
2023-04-08T05:39:59.240Z,18.40
2023-04-08T05:42:29.109Z,18.83
2023-04-08T05:44:59.003Z,19.87
2023-04-08T05:47:28.943Z,19.60
2023-04-08T05:49:58.846Z,19.10
2023-04-08T05:52:28.452Z,19.57
2023-04-08T05:54:58.248Z,19.27
2023-04-08T05:57:28.136Z,18.83
2023-04-08T05:59:57.948Z,19.23
2023-04-08T06:02:27.713Z,18.90
2023-04-08T06:04:58.225Z,18.73
2023-04-08T06:07:28.217Z,18.97
2023-04-08T06:09:58.045Z,18.13
2023-04-08T06:12:27.720Z,17.60
2023-04-08T06:14:57.652Z,16.85
2023-04-08T06:17:27.509Z,15.87
2023-04-08T06:19:57.755Z,17.60
2023-04-08T06:22:27.583Z,16.85
2023-04-08T06:24:57.381Z,17.17
2023-04-08T06:27:27.207Z,16.87
2023-04-08T06:29:57.282Z,15.87
2023-04-08T06:32:26.821Z,16.73
2023-04-08T06:34:56.719Z,17.27
2023-04-08T06:37:26.555Z,16.73
2023-04-08T06:39:56.708Z,17.23
2023-04-08T06:42:27.300Z,16.77
2023-04-08T06:45:14.057Z,15.80
2023-04-08T06:47:43.938Z,16.73
2023-04-08T06:50:13.942Z,17.60
2023-04-08T06:52:44.050Z,17.42
2023-04-08T06:55:13.657Z,16.87
2023-04-08T06:57:43.467Z,17.90
2023-04-08T07:00:13.731Z,17.43
2023-04-08T07:02:43.514Z,16.80
2023-04-08T07:05:13.735Z,18.37
2023-04-08T07:07:43.621Z,17.33
2023-04-08T07:10:15.745Z,17.14
2023-04-08T07:12:46.057Z,18.42
2023-04-08T07:15:15.659Z,18.67
2023-04-08T07:17:46.211Z,18.63
2023-04-08T07:20:18.239Z,18.50
2023-04-08T07:22:47.889Z,18.98
2023-04-08T07:25:17.872Z,18.87
2023-04-08T07:27:47.816Z,21.13
2023-04-08T07:30:17.771Z,19.15
2023-04-08T07:32:47.670Z,18.73
2023-04-08T07:35:18.956Z,20.87
2023-04-08T07:37:49.749Z,21.10
2023-04-08T07:40:19.398Z,20.50
2023-04-08T07:42:49.330Z,21.40
2023-04-08T07:45:19.374Z,21.17
2023-04-08T07:47:49.748Z,22.87
2023-04-08T07:50:19.468Z,22.47
2023-04-08T07:52:49.306Z,21.33
2023-04-08T07:55:19.302Z,22.60
2023-04-08T07:57:49.319Z,21.33
2023-04-08T08:00:21.092Z,20.40
2023-04-08T08:02:51.337Z,20.60
2023-04-08T08:05:21.518Z,19.12
2023-04-08T08:07:51.387Z,19.00
2023-04-08T08:10:21.277Z,18.80
2023-04-08T08:12:51.255Z,16.80
2023-04-08T08:15:21.123Z,17.03
2023-04-08T08:17:51.020Z,16.07
2023-04-08T08:20:21.246Z,16.77
2023-04-08T08:22:57.066Z,16.67
2023-04-08T08:25:25.795Z,16.17
2023-04-08T08:27:55.455Z,15.67
2023-04-08T08:30:26.494Z,15.33
2023-04-08T08:32:58.051Z,15.70
2023-04-08T08:35:27.989Z,14.87
2023-04-08T08:37:57.830Z,15.60
2023-04-08T08:40:27.696Z,14.50
2023-04-08T08:42:59.167Z,14.40
2023-04-08T08:45:29.244Z,14.73
2023-04-08T08:47:59.113Z,13.87
2023-04-08T08:50:29.495Z,13.98
2023-04-08T08:52:59.596Z,13.85
2023-04-08T08:55:56.803Z,14.57
2023-04-08T08:58:04.721Z,13.77
2023-04-08T09:00:36.752Z,13.30
2023-04-08T09:03:18.330Z,13.15
2023-04-08T09:05:56.564Z,13.23
2023-04-08T09:08:31.985Z,12.37
2023-04-08T09:11:24.760Z,12.47
2023-04-08T09:13:54.714Z,12.50
2023-04-08T09:16:24.782Z,11.88
2023-04-08T09:18:54.647Z,11.30
2023-04-08T09:21:27.886Z,11.07
2023-04-08T09:23:57.723Z,11.23
2023-04-08T09:26:27.550Z,11.48
2023-04-08T09:29:24.056Z,12.27
2023-04-08T09:31:42.937Z,10.90
2023-04-08T09:34:17.808Z,11.90
2023-04-08T09:36:49.070Z,12.10
2023-04-08T09:39:19.547Z,11.95
2023-04-08T09:41:51.574Z,10.73
2023-04-08T09:44:23.084Z,11.38
2023-04-08T09:46:55.983Z,10.90
2023-04-08T09:49:31.349Z,11.63
2023-04-08T09:52:13.237Z,11.53
2023-04-08T09:54:54.724Z,11.47
2023-04-08T09:57:43.665Z,11.00
2023-04-08T10:00:17.431Z,10.50
2023-04-08T10:03:08.643Z,11.00
2023-04-08T10:05:40.687Z,10.80
2023-04-08T10:08:11.734Z,11.22
2023-04-08T10:10:42.342Z,10.97
2023-04-08T10:13:12.728Z,10.72
2023-04-08T10:15:43.263Z,10.20
2023-04-08T10:18:19.143Z,10.13
2023-04-08T10:20:49.748Z,10.50
2023-04-08T10:23:21.058Z,10.40
2023-04-08T10:25:51.332Z,11.17
2023-04-08T10:28:24.351Z,10.50
2023-04-08T10:30:58.118Z,10.75
2023-04-08T10:33:34.772Z,10.33
2023-04-08T10:36:13.280Z,9.73
2023-04-08T10:38:43.821Z,10.30
2023-04-08T10:41:14.569Z,10.97
2023-04-08T10:43:48.090Z,10.05
2023-04-08T10:46:18.288Z,9.48
2023-04-08T10:48:51.470Z,8.98
2023-04-08T10:51:21.440Z,10.13
2023-04-08T10:53:51.741Z,9.87
2023-04-08T10:56:22.460Z,10.40
2023-04-08T10:58:56.187Z,9.80
2023-04-08T11:01:27.114Z,9.77
2023-04-08T11:03:57.531Z,9.73
2023-04-08T11:06:27.790Z,10.27
2023-04-08T11:09:00.223Z,10.43
2023-04-08T11:11:31.223Z,9.80
2023-04-08T11:14:02.156Z,9.15
2023-04-08T11:16:32.638Z,8.87
2023-04-08T11:19:05.401Z,9.57
2023-04-08T11:21:37.468Z,8.90
2023-04-08T11:24:11.950Z,9.73
2023-04-08T11:26:43.000Z,9.43
2023-04-08T11:29:16.808Z,9.13
2023-04-08T11:31:48.699Z,8.83
2023-04-08T11:34:26.169Z,9.13
2023-04-08T11:36:59.125Z,8.47
2023-04-08T11:39:29.227Z,9.28
2023-04-08T11:41:59.499Z,9.60
2023-04-08T11:44:33.630Z,9.53
2023-04-08T11:47:03.593Z,9.13
2023-04-08T11:49:47.586Z,9.88
2023-04-08T11:52:17.403Z,8.87
2023-04-08T11:54:48.703Z,9.87
2023-04-08T11:57:21.593Z,8.47
2023-04-08T11:59:51.706Z,9.10
2023-04-08T12:02:21.316Z,8.08
2023-04-08T12:04:51.276Z,8.53
2023-04-08T12:07:21.506Z,9.37
2023-04-08T12:09:51.462Z,8.57
2023-04-08T12:12:21.066Z,9.10
2023-04-08T12:14:51.431Z,8.90
2023-04-08T12:17:21.305Z,8.57
2023-04-08T12:19:51.216Z,8.83
2023-04-08T12:22:21.196Z,8.63
2023-04-08T12:24:51.353Z,8.70
2023-04-08T12:27:21.195Z,8.73
2023-04-08T12:29:52.023Z,8.60
2023-04-08T12:32:22.179Z,9.27
2023-04-08T12:34:52.412Z,8.70
2023-04-08T12:37:22.298Z,9.53
2023-04-08T12:39:52.377Z,8.97
2023-04-08T12:42:22.239Z,8.50
2023-04-08T12:44:52.606Z,8.67
2023-04-08T12:47:24.314Z,8.58
2023-04-08T12:49:54.238Z,8.80
2023-04-08T12:52:24.148Z,8.33
2023-04-08T12:54:53.952Z,8.60
2023-04-08T12:57:24.084Z,8.68
2023-04-08T12:59:54.065Z,8.20
2023-04-08T13:02:25.590Z,7.85
2023-04-08T13:04:55.597Z,7.73
2023-04-08T13:07:25.403Z,8.00
2023-04-08T13:09:55.291Z,7.60
2023-04-08T13:12:25.207Z,7.73
2023-04-08T13:14:55.298Z,7.70
2023-04-08T13:17:25.449Z,7.72
2023-04-08T13:19:55.518Z,7.47
2023-04-08T13:22:25.589Z,7.58
2023-04-08T13:24:55.489Z,6.90
2023-04-08T13:27:25.284Z,7.10
2023-04-08T13:29:55.979Z,7.58
2023-04-08T13:32:26.137Z,6.60
2023-04-08T13:34:56.280Z,6.40
2023-04-08T13:37:26.095Z,6.57
2023-04-08T13:39:56.942Z,6.20
2023-04-08T13:42:27.068Z,6.57
2023-04-08T13:44:57.160Z,6.78
2023-04-08T13:47:29.915Z,7.03
2023-04-08T13:50:00.250Z,6.78
2023-04-08T13:52:30.495Z,6.72
2023-04-08T13:55:00.603Z,6.07
2023-04-08T13:57:30.713Z,6.65
2023-04-08T14:00:01.259Z,7.03
2023-04-08T14:02:31.872Z,7.40
2023-04-08T14:05:02.427Z,7.03
2023-04-08T14:07:32.612Z,6.53
2023-04-08T14:10:02.763Z,6.90
2023-04-08T14:12:32.898Z,7.00
2023-04-08T14:15:03.514Z,7.05
2023-04-08T14:17:35.008Z,7.03
2023-04-08T14:20:08.434Z,7.26
2023-04-08T14:22:38.581Z,6.47
2023-04-08T14:25:08.334Z,6.33
2023-04-08T14:27:51.003Z,6.45
2023-04-08T14:30:10.507Z,6.40
2023-04-08T14:32:40.722Z,6.50
2023-04-08T14:35:10.631Z,6.57
2023-04-08T14:37:40.742Z,7.03
2023-04-08T14:40:10.987Z,7.03
2023-04-08T14:42:41.256Z,6.78
2023-04-08T14:45:11.220Z,6.20
2023-04-08T14:47:41.460Z,7.47
2023-04-08T14:50:11.468Z,8.00
2023-04-08T14:52:41.601Z,7.75
2023-04-08T14:55:11.372Z,6.52
2023-04-08T14:57:41.522Z,7.28
2023-04-08T15:00:11.422Z,7.90
2023-04-08T15:02:41.456Z,8.13
2023-04-08T15:05:11.583Z,7.60
2023-04-08T15:07:41.860Z,8.10
2023-04-08T15:10:12.095Z,7.60
2023-04-08T15:12:41.616Z,7.95
2023-04-08T15:15:11.489Z,8.30
2023-04-08T15:17:41.365Z,8.17
2023-04-08T15:20:11.846Z,7.92
2023-04-08T15:22:41.616Z,8.10
2023-04-08T15:25:13.130Z,8.00
2023-04-08T15:27:43.157Z,8.40
2023-04-08T15:30:13.415Z,7.83
2023-04-08T15:32:43.217Z,7.80
2023-04-08T15:35:13.080Z,8.10
2023-04-08T15:37:42.890Z,9.40
2023-04-08T15:40:13.968Z,8.50
2023-04-08T15:42:44.621Z,8.30
2023-04-08T15:45:14.222Z,9.10
2023-04-08T15:47:44.456Z,8.83
2023-04-08T15:50:17.277Z,9.28
2023-04-08T15:52:47.196Z,9.13
2023-04-08T15:55:16.786Z,9.60
2023-04-08T15:57:46.698Z,10.80
2023-04-08T16:00:18.113Z,11.77
2023-04-08T16:02:47.806Z,11.25
2023-04-08T16:05:17.893Z,11.12
2023-04-08T16:07:47.702Z,11.43
2023-04-08T16:10:19.310Z,10.74
2023-04-08T16:12:49.482Z,12.37
2023-04-08T16:15:19.434Z,12.03
2023-04-08T16:17:53.318Z,12.30
2023-04-08T16:20:23.224Z,11.90
2023-04-08T16:22:53.345Z,13.03
2023-04-08T16:25:23.344Z,13.58
2023-04-08T16:27:53.639Z,14.35
2023-04-08T16:30:23.152Z,13.80
2023-04-08T16:32:53.015Z,14.10
2023-04-08T16:35:22.532Z,15.10
2023-04-08T16:37:52.338Z,14.30
2023-04-08T16:40:22.953Z,14.63
2023-04-08T16:42:52.842Z,14.73
2023-04-08T16:45:22.688Z,13.80
2023-04-08T16:47:52.597Z,15.10
2023-04-08T16:50:22.468Z,14.43
2023-04-08T16:52:52.478Z,15.60
2023-04-08T16:55:22.105Z,15.53
2023-04-08T16:57:52.141Z,15.97
2023-04-08T17:00:22.370Z,16.03
2023-04-08T17:02:54.015Z,15.77
2023-04-08T17:05:24.507Z,16.05
2023-04-08T17:07:54.558Z,16.43
2023-04-08T17:10:24.557Z,15.80
2023-04-08T17:12:54.589Z,15.53
2023-04-08T17:15:24.501Z,15.47
2023-04-08T17:17:54.377Z,15.90
2023-04-08T17:20:25.912Z,16.07
2023-04-08T17:22:56.236Z,15.93
2023-04-08T17:25:26.051Z,16.47
2023-04-08T17:27:55.873Z,15.33
2023-04-08T17:30:25.682Z,15.95
2023-04-08T17:32:55.573Z,15.27
2023-04-08T17:35:25.164Z,16.00
2023-04-08T17:37:55.000Z,16.40
2023-04-08T17:40:24.609Z,15.40
2023-04-08T17:42:54.415Z,16.33
2023-04-08T17:45:25.427Z,15.20
2023-04-08T17:47:56.171Z,16.17
2023-04-08T17:50:26.810Z,15.68
2023-04-08T17:52:56.620Z,15.50
2023-04-08T17:55:26.390Z,15.73
2023-04-08T17:57:56.178Z,15.33
2023-04-08T18:00:26.655Z,15.08
2023-04-08T18:02:56.599Z,15.70
2023-04-08T18:05:27.184Z,15.17
2023-04-08T18:07:58.176Z,14.63
2023-04-08T18:10:28.721Z,14.58
2023-04-08T18:13:11.311Z,15.63
2023-04-08T18:15:30.311Z,15.57
2023-04-08T18:17:59.890Z,14.80
2023-04-08T18:20:29.730Z,15.13
2023-04-08T18:23:01.610Z,14.77
2023-04-08T18:25:32.282Z,14.30
2023-04-08T18:28:02.154Z,14.70
2023-04-08T18:30:32.311Z,15.00
2023-04-08T18:33:02.088Z,14.65
2023-04-08T18:35:32.148Z,14.93
2023-04-08T18:38:02.029Z,15.23
2023-04-08T18:40:31.865Z,16.15
2023-04-08T18:43:03.429Z,15.07
2023-04-08T18:45:33.300Z,15.40
2023-04-08T18:48:03.178Z,15.17
2023-04-08T18:50:32.664Z,15.65
2023-04-08T18:53:02.547Z,14.87
2023-04-08T18:55:36.011Z,15.30
2023-04-08T18:58:07.356Z,15.00
2023-04-08T19:00:43.556Z,16.20
2023-04-08T19:05:42.391Z,16.27
2023-04-08T19:08:13.020Z,16.10
2023-04-08T19:10:43.541Z,20.02
2023-04-08T19:13:13.372Z,17.53
2023-04-08T19:15:43.276Z,19.37
2023-04-08T19:18:13.341Z,19.07
2023-04-08T19:20:43.382Z,18.50
2023-04-08T19:23:13.068Z,17.60
2023-04-08T19:25:43.956Z,18.40
2023-04-08T19:28:14.454Z,18.80
2023-04-08T19:30:44.281Z,20.77
2023-04-08T19:33:15.467Z,18.97
2023-04-08T19:35:45.347Z,19.57
2023-04-08T19:38:15.834Z,19.60
2023-04-08T19:40:47.380Z,20.27
2023-04-08T19:43:17.788Z,21.13
2023-04-08T19:45:47.783Z,20.63
2023-04-08T19:48:17.827Z,20.08
2023-04-08T19:50:48.792Z,19.98
2023-04-08T19:53:19.294Z,20.67
2023-04-08T19:55:49.138Z,21.63
2023-04-08T19:58:18.856Z,20.80
2023-04-08T20:00:48.700Z,22.33
2023-04-08T20:03:18.742Z,22.50
2023-04-08T20:05:48.624Z,23.23
2023-04-08T20:08:18.313Z,21.34
2023-04-08T20:10:49.462Z,21.37
2023-04-08T20:13:19.284Z,22.90
2023-04-08T20:15:49.505Z,21.62
2023-04-08T20:18:19.104Z,21.30
2023-04-08T20:20:48.972Z,23.10
2023-04-08T20:23:19.132Z,21.80
2023-04-08T20:25:48.996Z,21.90
2023-04-08T20:28:18.895Z,21.73
2023-04-08T20:30:48.720Z,22.70
2023-04-08T20:33:19.095Z,23.13
2023-04-08T20:35:50.434Z,21.45
2023-04-08T20:38:20.105Z,22.30
2023-04-08T20:40:50.040Z,22.57
2023-04-08T20:43:20.237Z,22.40
2023-04-08T20:45:50.073Z,21.10
2023-04-08T20:48:19.880Z,22.53
2023-04-08T20:50:50.494Z,20.80
2023-04-08T20:53:20.596Z,22.20
2023-04-08T20:55:50.610Z,22.63
2023-04-08T20:58:20.407Z,22.90
2023-04-08T21:00:50.603Z,22.32
2023-04-08T21:03:20.709Z,20.70
2023-04-08T21:05:51.827Z,19.43
2023-04-08T21:08:21.831Z,19.00
2023-04-08T21:10:52.134Z,20.27
2023-04-08T21:13:21.949Z,19.17
2023-04-08T21:15:51.900Z,19.83
2023-04-08T21:18:21.700Z,19.90
2023-04-08T21:20:51.525Z,19.30
2023-04-08T21:23:21.397Z,19.73
2023-04-08T21:25:50.980Z,19.65
2023-04-08T21:28:20.855Z,18.10
2023-04-08T21:30:50.911Z,19.00
2023-04-08T21:33:20.974Z,19.53
2023-04-08T21:35:51.461Z,19.27
2023-04-08T21:38:20.969Z,19.07
2023-04-08T21:40:51.108Z,19.20
2023-04-08T21:43:21.840Z,17.80
2023-04-08T21:45:53.301Z,18.50
2023-04-08T21:48:23.397Z,19.20
2023-04-08T21:50:53.413Z,19.07
2023-04-08T21:53:23.772Z,17.75
2023-04-08T21:55:53.621Z,17.67
2023-04-08T21:58:23.451Z,18.73
2023-04-08T22:00:53.632Z,17.23
2023-04-08T22:03:23.328Z,18.10
2023-04-08T22:05:53.365Z,18.40
2023-04-08T22:08:23.234Z,19.05
2023-04-08T22:10:53.127Z,18.77
2023-04-08T22:13:23.099Z,18.07
2023-04-08T22:15:52.924Z,20.50
2023-04-08T22:18:22.629Z,19.00
2023-04-08T22:20:52.745Z,19.55
2023-04-08T22:23:22.569Z,20.47
2023-04-08T22:25:52.474Z,20.07
2023-04-08T22:28:22.335Z,20.75
2023-04-08T22:30:53.872Z,20.80
2023-04-08T22:33:23.705Z,20.40
2023-04-08T22:35:53.714Z,21.43
2023-04-08T22:38:23.429Z,20.10
2023-04-08T22:40:53.557Z,20.02
2023-04-08T22:43:23.644Z,19.62
2023-04-08T22:45:53.405Z,18.65
2023-04-08T22:48:23.263Z,20.27
2023-04-08T22:50:53.054Z,18.97
2023-04-08T22:53:22.933Z,18.23
2023-04-08T22:55:53.072Z,18.65
2023-04-08T22:58:22.928Z,20.25
2023-04-08T23:00:52.763Z,18.63
2023-04-08T23:03:22.599Z,19.53
2023-04-08T23:05:52.236Z,20.85
2023-04-08T23:08:22.138Z,20.10
2023-04-08T23:10:52.031Z,20.70
2023-04-08T23:13:21.874Z,19.63
2023-04-08T23:15:51.721Z,21.43
2023-04-08T23:18:21.323Z,20.30
2023-04-08T23:20:54.796Z,19.73
2023-04-08T23:23:26.014Z,19.97
2023-04-08T23:25:56.050Z,19.27
2023-04-08T23:28:26.000Z,20.13
2023-04-08T23:30:56.404Z,19.73
2023-04-08T23:33:26.189Z,20.33
2023-04-08T23:35:56.018Z,19.33
2023-04-08T23:38:25.642Z,21.37
2023-04-08T23:40:55.614Z,19.10
2023-04-08T23:43:25.464Z,19.73
2023-04-08T23:45:55.294Z,18.80
2023-04-08T23:48:24.811Z,19.17
2023-04-08T23:50:56.261Z,18.57
2023-04-08T23:53:26.064Z,18.27
2023-04-08T23:55:55.944Z,19.17
2023-04-08T23:58:26.054Z,17.60
